createdAt,value
2018-04-24T00:00:17.658Z,61.18
2018-04-24T00:02:45.311Z,61.02
2018-04-24T00:05:12.853Z,61.04
2018-04-24T00:07:40.513Z,61.35
2018-04-24T00:10:08.093Z,61.21
2018-04-24T00:12:35.634Z,61.44
2018-04-24T00:15:03.171Z,61.54
2018-04-24T00:17:30.869Z,61.66
2018-04-24T00:19:58.432Z,61.64
2018-04-24T00:22:26.005Z,61.79
2018-04-24T00:24:53.674Z,61.63
2018-04-24T00:27:21.208Z,61.68
2018-04-24T00:29:48.756Z,61.83
2018-04-24T00:32:16.315Z,61.92
2018-04-24T00:34:43.928Z,62.10
2018-04-24T00:37:11.534Z,62.28
2018-04-24T00:39:39.088Z,62.17
2018-04-24T00:42:06.634Z,62.42
2018-04-24T00:44:34.178Z,63.01
2018-04-24T00:47:01.734Z,63.25
2018-04-24T00:49:29.259Z,63.30
2018-04-24T00:51:57.016Z,63.17
2018-04-24T00:54:24.575Z,63.39
2018-04-24T00:56:52.125Z,63.77
2018-04-24T00:59:19.703Z,64.01
2018-04-24T01:01:47.264Z,64.05
2018-04-24T01:04:14.813Z,64.18
2018-04-24T01:06:42.474Z,62.98
2018-04-24T01:09:09.992Z,63.12
2018-04-24T01:11:38.734Z,63.34
2018-04-24T01:14:06.456Z,63.60
2018-04-24T01:16:33.983Z,63.74
2018-04-24T01:19:01.532Z,64.03
2018-04-24T01:21:29.136Z,64.11
2018-04-24T01:23:56.695Z,64.27
2018-04-24T01:26:24.236Z,64.57
2018-04-24T01:28:51.825Z,64.78
2018-04-24T01:31:19.355Z,64.79
2018-04-24T01:33:46.893Z,64.95
2018-04-24T01:36:14.483Z,65.18
2018-04-24T01:38:42.025Z,65.26
2018-04-24T01:41:09.572Z,65.28
2018-04-24T01:43:37.139Z,65.30
2018-04-24T01:46:04.683Z,64.92
2018-04-24T01:48:32.228Z,64.94
2018-04-24T01:50:59.804Z,65.01
2018-04-24T01:53:27.339Z,65.58
2018-04-24T01:55:54.872Z,65.94
2018-04-24T01:58:22.488Z,66.26
2018-04-24T02:00:50.023Z,66.60
2018-04-24T02:03:17.566Z,66.67
2018-04-24T02:05:45.139Z,66.49
2018-04-24T02:08:12.674Z,66.16
2018-04-24T02:10:40.213Z,66.21
2018-04-24T02:13:07.879Z,66.10
2018-04-24T02:15:35.407Z,66.07
2018-04-24T02:18:02.975Z,65.99
2018-04-24T02:20:30.551Z,66.16
2018-04-24T02:22:58.099Z,66.28
2018-04-24T02:25:25.649Z,66.53
2018-04-24T02:27:53.309Z,66.86
2018-04-24T02:30:20.848Z,67.12
2018-04-24T02:32:48.393Z,67.27
2018-04-24T02:35:16.046Z,67.31
2018-04-24T02:37:43.593Z,67.35
2018-04-24T02:40:11.128Z,67.47
2018-04-24T02:42:38.699Z,67.41
2018-04-24T02:45:06.252Z,66.88
2018-04-24T02:47:33.810Z,66.84
2018-04-24T02:50:01.389Z,67.01
2018-04-24T02:52:28.929Z,67.21
2018-04-24T02:54:56.463Z,67.30
2018-04-24T02:57:24.139Z,67.65
2018-04-24T02:59:51.681Z,67.78
2018-04-24T03:02:19.225Z,67.89
2018-04-24T03:04:46.821Z,68.04
2018-04-24T03:07:14.356Z,68.10
2018-04-24T03:09:41.916Z,68.14
2018-04-24T03:12:09.762Z,68.32
2018-04-24T03:14:37.301Z,68.27
2018-04-24T03:17:04.839Z,68.17
2018-04-24T03:19:32.710Z,68.25
2018-04-24T03:22:00.284Z,68.58
2018-04-24T03:24:27.817Z,68.71
2018-04-24T03:26:55.381Z,68.73
2018-04-24T03:29:22.924Z,68.86
2018-04-24T03:31:50.464Z,68.99
2018-04-24T03:34:18.033Z,68.98
2018-04-24T03:36:45.580Z,68.92
2018-04-24T03:39:13.115Z,68.61
2018-04-24T03:41:40.687Z,68.20
2018-04-24T03:44:08.253Z,67.67
2018-04-24T03:46:35.793Z,66.40
2018-04-24T03:49:03.368Z,63.62
2018-04-24T03:51:30.906Z,60.46
2018-04-24T03:53:58.433Z,57.02
2018-04-24T03:56:25.995Z,53.57
2018-04-24T03:58:53.541Z,50.97
2018-04-24T04:01:21.080Z,48.13
2018-04-24T04:03:48.743Z,45.50
2018-04-24T04:06:16.291Z,41.73
2018-04-24T04:08:43.854Z,39.39
2018-04-24T04:11:11.627Z,38.39
2018-04-24T04:13:39.168Z,35.70
2018-04-24T04:16:06.722Z,33.47
2018-04-24T04:18:46.222Z,33.45
2018-04-24T04:21:25.424Z,30.66
2018-04-24T04:24:04.644Z,30.11
2018-04-24T04:26:32.187Z,30.23
2018-04-24T04:28:59.747Z,28.58
2018-04-24T04:31:27.424Z,27.98
2018-04-24T04:33:54.966Z,28.69
2018-04-24T04:36:22.515Z,29.03
2018-04-24T04:38:50.121Z,27.93
2018-04-24T04:41:17.677Z,28.07
2018-04-24T04:43:45.216Z,29.26
2018-04-24T04:46:12.768Z,28.37
2018-04-24T04:48:40.331Z,26.80
2018-04-24T04:51:08.068Z,26.04
2018-04-24T04:53:35.628Z,25.93
2018-04-24T04:56:03.264Z,25.43
2018-04-24T04:58:30.788Z,23.21
2018-04-24T05:00:58.331Z,21.46
2018-04-24T05:03:25.886Z,21.37
2018-04-24T05:05:53.604Z,21.84
2018-04-24T05:08:21.162Z,21.20
2018-04-24T05:10:48.708Z,21.03
2018-04-24T05:13:16.441Z,20.33
2018-04-24T05:15:43.986Z,20.47
2018-04-24T05:18:11.522Z,19.91
2018-04-24T05:20:39.403Z,18.85
2018-04-24T05:23:06.974Z,19.31
2018-04-24T05:25:34.537Z,19.13
2018-04-24T05:28:02.281Z,19.82
2018-04-24T05:30:29.859Z,19.27
2018-04-24T05:32:57.408Z,20.47
2018-04-24T05:35:25.285Z,20.60
2018-04-24T05:37:52.870Z,22.47
2018-04-24T05:40:20.404Z,22.90
2018-04-24T05:42:48.144Z,25.32
2018-04-24T05:45:15.696Z,25.42
2018-04-24T05:47:43.248Z,25.80
2018-04-24T05:50:10.903Z,28.26
2018-04-24T05:52:38.438Z,28.04
2018-04-24T05:55:05.981Z,28.33
2018-04-24T05:57:33.710Z,27.25
2018-04-24T06:00:01.260Z,27.43
2018-04-24T06:02:28.813Z,28.13
2018-04-24T06:04:56.496Z,29.37
2018-04-24T06:07:24.041Z,30.42
2018-04-24T06:09:51.598Z,31.36
2018-04-24T06:12:19.305Z,31.31
2018-04-24T06:14:46.864Z,31.32
2018-04-24T06:17:14.404Z,31.14
2018-04-24T06:19:41.989Z,30.76
2018-04-24T06:22:09.567Z,31.26
2018-04-24T06:24:37.119Z,31.19
2018-04-24T06:27:04.725Z,31.18
2018-04-24T06:29:32.281Z,32.01
2018-04-24T06:31:59.831Z,31.02
2018-04-24T06:34:27.457Z,30.50
2018-04-24T06:36:55.007Z,30.54
2018-04-24T06:39:22.558Z,30.17
2018-04-24T06:41:50.500Z,30.15
2018-04-24T06:44:18.048Z,30.39
2018-04-24T06:46:45.609Z,30.92
2018-04-24T06:49:13.299Z,31.17
2018-04-24T06:51:40.860Z,31.39
2018-04-24T06:54:08.415Z,30.94
2018-04-24T06:56:36.010Z,31.85
2018-04-24T06:59:03.556Z,30.85
2018-04-24T07:01:31.119Z,31.55
2018-04-24T07:03:58.695Z,30.70
2018-04-24T07:06:26.353Z,31.49
2018-04-24T07:08:53.887Z,32.08
2018-04-24T07:11:21.613Z,31.59
2018-04-24T07:13:49.161Z,30.96
2018-04-24T07:16:16.711Z,31.23
2018-04-24T07:18:44.404Z,32.42
2018-04-24T07:21:11.964Z,32.16
2018-04-24T07:23:39.508Z,32.22
2018-04-24T07:26:07.099Z,32.52
2018-04-24T07:28:34.654Z,31.39
2018-04-24T07:31:02.215Z,31.75
2018-04-24T07:33:29.942Z,31.21
2018-04-24T07:35:57.493Z,31.32
2018-04-24T07:38:25.065Z,31.52
2018-04-24T07:40:52.639Z,30.83
2018-04-24T07:43:20.176Z,31.23
2018-04-24T07:45:47.711Z,32.37
2018-04-24T07:48:15.320Z,31.66
2018-04-24T07:50:42.866Z,31.85
2018-04-24T07:53:10.425Z,32.78
2018-04-24T07:55:38.169Z,33.31
2018-04-24T07:58:05.712Z,33.20
2018-04-24T08:00:33.256Z,33.74
2018-04-24T08:03:00.934Z,33.47
2018-04-24T08:05:28.484Z,33.95
2018-04-24T08:07:56.045Z,34.89
2018-04-24T08:10:23.634Z,34.83
2018-04-24T08:12:51.190Z,35.06
2018-04-24T08:15:18.751Z,35.25
2018-04-24T08:17:46.331Z,34.81
2018-04-24T08:20:13.911Z,35.35
2018-04-24T08:22:41.433Z,35.25
2018-04-24T08:25:09.153Z,36.63
2018-04-24T08:27:36.747Z,35.66
2018-04-24T08:30:04.392Z,35.36
2018-04-24T08:32:31.977Z,36.24
2018-04-24T08:34:59.531Z,35.96
2018-04-24T08:37:27.085Z,36.29
2018-04-24T08:39:54.690Z,36.13
2018-04-24T08:42:22.231Z,36.36
2018-04-24T08:44:49.774Z,35.01
2018-04-24T08:47:17.315Z,34.68
2018-04-24T08:49:44.879Z,35.79
2018-04-24T08:52:12.733Z,35.88
2018-04-24T08:54:40.273Z,36.77
2018-04-24T08:57:07.846Z,36.38
2018-04-24T08:59:35.703Z,34.80
2018-04-24T09:02:03.322Z,35.00
2018-04-24T09:04:31.381Z,34.94
2018-04-24T09:06:59.102Z,35.18
2018-04-24T09:09:26.643Z,34.44
2018-04-24T09:11:54.240Z,34.69
2018-04-24T09:14:21.872Z,33.90
2018-04-24T09:16:49.413Z,34.53
2018-04-24T09:19:16.959Z,34.64
2018-04-24T09:21:44.847Z,35.19
2018-04-24T09:24:12.436Z,35.07
2018-04-24T09:26:39.979Z,35.62
2018-04-24T09:29:07.558Z,35.41
2018-04-24T09:31:41.400Z,34.18
2018-04-24T09:34:09.024Z,32.96
2018-04-24T09:36:36.566Z,33.07
2018-04-24T09:39:06.829Z,32.82
2018-04-24T09:41:34.860Z,31.32
2018-04-24T09:44:02.473Z,31.33
2018-04-24T09:46:29.996Z,30.96
2018-04-24T09:48:57.785Z,31.05
2018-04-24T09:51:25.340Z,31.70
2018-04-24T09:53:52.896Z,31.80
2018-04-24T09:56:20.628Z,31.95
2018-04-24T09:58:48.154Z,31.52
2018-04-24T10:01:16.431Z,31.21
2018-04-24T10:03:44.163Z,30.84
2018-04-24T10:06:11.733Z,30.33
2018-04-24T10:08:39.274Z,29.46
2018-04-24T10:11:07.129Z,29.05
2018-04-24T10:13:34.790Z,27.90
2018-04-24T10:16:02.282Z,28.04
2018-04-24T10:18:29.873Z,27.53
2018-04-24T10:20:57.426Z,26.28
2018-04-24T10:23:24.962Z,25.61
2018-04-24T10:25:52.566Z,26.30
2018-04-24T10:28:20.099Z,26.10
2018-04-24T10:30:47.634Z,24.66
2018-04-24T10:33:15.220Z,23.98
2018-04-24T10:35:42.765Z,23.39
2018-04-24T10:38:10.321Z,22.03
2018-04-24T10:40:37.891Z,21.30
2018-04-24T10:43:05.416Z,20.88
2018-04-24T10:45:32.984Z,21.23
2018-04-24T10:48:00.588Z,22.99
2018-04-24T10:50:28.133Z,22.90
2018-04-24T10:52:55.985Z,21.28
2018-04-24T10:55:23.527Z,22.61
2018-04-24T10:57:51.068Z,20.99
2018-04-24T11:00:18.644Z,21.31
2018-04-24T11:02:46.193Z,19.54
2018-04-24T11:05:13.736Z,20.96
2018-04-24T11:07:41.290Z,20.78
2018-04-24T11:10:08.838Z,22.48
2018-04-24T11:12:36.388Z,22.61
2018-04-24T11:15:03.982Z,22.84
2018-04-24T11:17:31.553Z,22.45
2018-04-24T11:19:59.102Z,22.85
2018-04-24T11:22:26.848Z,22.34
2018-04-24T11:24:54.379Z,21.22
2018-04-24T11:27:21.926Z,20.84
2018-04-24T11:29:49.513Z,19.50
2018-04-24T11:32:17.072Z,19.49
2018-04-24T11:34:44.603Z,18.83
2018-04-24T11:37:12.175Z,19.72
2018-04-24T11:39:39.712Z,20.01
2018-04-24T11:42:07.259Z,19.80
2018-04-24T11:44:34.931Z,20.06
2018-04-24T11:47:02.495Z,20.63
2018-04-24T11:49:30.056Z,19.69
2018-04-24T11:51:57.638Z,19.62
2018-04-24T11:54:25.189Z,19.60
2018-04-24T11:56:52.729Z,19.61
2018-04-24T11:59:20.342Z,19.58
2018-04-24T12:01:47.886Z,19.30
2018-04-24T12:04:15.429Z,19.45
2018-04-24T12:06:43.120Z,19.92
2018-04-24T12:09:10.651Z,19.90
2018-04-24T12:11:38.187Z,20.63
2018-04-24T12:14:05.763Z,19.97
2018-04-24T12:16:33.300Z,20.52
2018-04-24T12:19:00.836Z,20.60
2018-04-24T12:21:29.311Z,18.97
2018-04-24T12:23:56.831Z,19.17
2018-04-24T12:26:24.360Z,20.07
2018-04-24T12:28:52.281Z,20.09
2018-04-24T12:31:19.824Z,20.77
2018-04-24T12:33:47.354Z,20.36
2018-04-24T12:36:14.947Z,20.92
2018-04-24T12:38:42.575Z,21.06
2018-04-24T12:41:10.051Z,20.84
2018-04-24T12:43:37.692Z,21.85
2018-04-24T12:46:05.232Z,20.03
2018-04-24T12:48:32.767Z,20.49
2018-04-24T12:51:00.665Z,20.64
2018-04-24T12:53:28.214Z,20.87
2018-04-24T12:55:55.754Z,21.77
2018-04-24T12:58:23.465Z,20.34
2018-04-24T13:00:51.008Z,20.28
2018-04-24T13:03:18.579Z,20.46
2018-04-24T13:05:46.165Z,20.94
2018-04-24T13:08:13.707Z,22.12
2018-04-24T13:10:41.245Z,23.12
2018-04-24T13:13:08.836Z,22.94
2018-04-24T13:15:36.377Z,22.57
2018-04-24T13:18:03.933Z,20.86
2018-04-24T13:20:31.507Z,21.24
2018-04-24T13:22:59.057Z,20.72
2018-04-24T13:25:26.603Z,20.22
2018-04-24T13:27:54.482Z,20.64
2018-04-24T13:30:22.043Z,20.29
2018-04-24T13:32:49.602Z,19.90
2018-04-24T13:35:17.187Z,20.72
2018-04-24T13:37:44.727Z,21.66
2018-04-24T13:40:12.269Z,21.38
2018-04-24T13:42:39.853Z,21.44
2018-04-24T13:45:07.411Z,21.13
2018-04-24T13:47:34.958Z,20.55
2018-04-24T13:50:02.552Z,20.31
2018-04-24T13:52:30.090Z,20.54
2018-04-24T13:54:57.622Z,20.91
2018-04-24T13:57:25.295Z,20.86
2018-04-24T13:59:52.836Z,20.80
2018-04-24T14:02:20.373Z,20.76
2018-04-24T14:04:48.243Z,20.19
2018-04-24T14:07:15.795Z,20.85
2018-04-24T14:09:43.347Z,20.72
2018-04-24T14:12:10.970Z,21.03
2018-04-24T14:14:38.529Z,21.13
2018-04-24T14:17:06.055Z,21.12
2018-04-24T14:19:33.808Z,21.17
2018-04-24T14:22:01.340Z,20.43
2018-04-24T14:24:28.883Z,20.15
2018-04-24T14:26:56.462Z,21.21
2018-04-24T14:29:24.027Z,20.92
2018-04-24T14:31:51.579Z,21.02
2018-04-24T14:34:19.175Z,21.30
2018-04-24T14:36:46.706Z,21.20
2018-04-24T14:39:14.248Z,21.57
2018-04-24T14:41:41.974Z,21.87
2018-04-24T14:44:09.515Z,21.60
2018-04-24T14:46:37.044Z,22.68
2018-04-24T14:49:04.740Z,22.64
2018-04-24T14:51:32.303Z,23.17
2018-04-24T14:53:59.860Z,22.71
2018-04-24T14:56:27.532Z,22.79
2018-04-24T14:58:55.073Z,23.15
2018-04-24T15:01:22.629Z,23.02
2018-04-24T15:03:50.208Z,22.90
2018-04-24T15:06:17.743Z,23.18
2018-04-24T15:08:45.302Z,22.92
2018-04-24T15:11:12.984Z,23.47
2018-04-24T15:13:40.528Z,23.28
2018-04-24T15:16:08.079Z,23.07
2018-04-24T15:18:35.677Z,23.66
2018-04-24T15:21:03.215Z,23.64
2018-04-24T15:23:30.756Z,23.49
2018-04-24T15:25:58.321Z,23.26
2018-04-24T15:28:25.852Z,23.74
2018-04-24T15:30:53.413Z,24.29
2018-04-24T15:33:21.073Z,24.19
2018-04-24T15:35:48.647Z,24.26
2018-04-24T15:38:16.175Z,25.30
2018-04-24T15:40:44.041Z,25.49
2018-04-24T15:43:11.602Z,25.37
2018-04-24T15:45:39.156Z,25.80
2018-04-24T15:48:06.730Z,25.76
2018-04-24T15:50:34.290Z,26.28
2018-04-24T15:53:01.852Z,26.18
2018-04-24T15:55:29.387Z,26.58
2018-04-24T15:57:56.934Z,26.76
2018-04-24T16:00:24.515Z,26.66
2018-04-24T16:02:52.107Z,27.39
2018-04-24T16:05:19.648Z,27.68
2018-04-24T16:07:47.323Z,28.09
2018-04-24T16:10:14.864Z,28.71
2018-04-24T16:12:42.397Z,29.31
2018-04-24T16:15:09.964Z,29.47
2018-04-24T16:17:37.518Z,29.56
2018-04-24T16:20:05.116Z,29.60
2018-04-24T16:22:32.856Z,29.52
2018-04-24T16:25:00.392Z,28.91
2018-04-24T16:27:27.932Z,28.68
2018-04-24T16:29:55.649Z,28.68
2018-04-24T16:32:23.197Z,29.27
2018-04-24T16:34:50.759Z,29.45
2018-04-24T16:37:18.423Z,29.94
2018-04-24T16:39:45.979Z,30.46
2018-04-24T16:42:13.564Z,31.67
2018-04-24T16:44:41.454Z,31.34
2018-04-24T16:47:08.993Z,31.78
2018-04-24T16:49:36.554Z,32.72
2018-04-24T16:52:04.141Z,33.26
2018-04-24T16:54:31.682Z,34.11
2018-04-24T16:56:59.218Z,35.14
2018-04-24T16:59:27.078Z,36.04
2018-04-24T17:01:54.608Z,37.49
2018-04-24T17:04:22.144Z,38.00
2018-04-24T17:06:49.920Z,38.37
2018-04-24T17:09:17.471Z,38.91
2018-04-24T17:11:45.033Z,39.39
2018-04-24T17:14:12.627Z,38.26
2018-04-24T17:16:40.186Z,38.08
2018-04-24T17:19:07.734Z,37.56
2018-04-24T17:21:35.460Z,37.44
2018-04-24T17:24:03.032Z,36.93
2018-04-24T17:26:30.584Z,37.16
2018-04-24T17:28:58.274Z,36.66
2018-04-24T17:31:25.842Z,36.78
2018-04-24T17:33:53.387Z,36.55
2018-04-24T17:36:20.958Z,36.66
2018-04-24T17:38:48.517Z,36.80
2018-04-24T17:41:16.063Z,36.72
2018-04-24T17:43:43.661Z,36.69
2018-04-24T17:46:11.241Z,37.08
2018-04-24T17:48:38.845Z,38.53
2018-04-24T17:51:06.441Z,37.76
2018-04-24T17:53:34.016Z,39.66
2018-04-24T17:56:01.584Z,41.08
2018-04-24T17:58:29.394Z,39.53
2018-04-24T18:00:56.992Z,40.41
2018-04-24T18:03:24.558Z,42.97
2018-04-24T18:05:52.168Z,43.85
2018-04-24T18:08:19.745Z,44.38
2018-04-24T18:10:47.281Z,42.38
2018-04-24T18:13:14.890Z,43.83
2018-04-24T18:15:42.446Z,44.78
2018-04-24T18:18:10.019Z,42.95
2018-04-24T18:20:37.777Z,43.88
2018-04-24T18:23:05.352Z,44.43
2018-04-24T18:25:32.889Z,44.42
2018-04-24T18:28:00.476Z,43.35
2018-04-24T18:30:28.047Z,44.47
2018-04-24T18:32:55.701Z,47.71
2018-04-24T18:35:23.277Z,47.73
2018-04-24T18:37:50.817Z,46.02
2018-04-24T18:40:18.363Z,49.07
2018-04-24T18:42:46.076Z,50.08
2018-04-24T18:45:13.629Z,51.39
2018-04-24T18:47:41.181Z,51.73
2018-04-24T18:50:09.052Z,51.87
2018-04-24T18:52:36.597Z,51.79
2018-04-24T18:55:04.324Z,52.48
2018-04-24T18:57:32.095Z,53.29
2018-04-24T18:59:59.667Z,53.41
2018-04-24T19:02:27.246Z,52.93
2018-04-24T19:04:55.018Z,52.30
2018-04-24T19:07:22.610Z,51.18
2018-04-24T19:09:50.158Z,51.97
2018-04-24T19:12:17.742Z,52.57
2018-04-24T19:14:45.313Z,52.09
2018-04-24T19:17:12.877Z,52.25
2018-04-24T19:19:40.676Z,51.78
2018-04-24T19:22:08.178Z,51.63
2018-04-24T19:24:41.379Z,50.18
2018-04-24T19:27:08.916Z,50.72
2018-04-24T19:29:36.525Z,50.30
2018-04-24T19:32:09.677Z,50.19
2018-04-24T19:34:37.246Z,49.32
2018-04-24T19:37:04.810Z,49.80
2018-04-24T19:39:38.000Z,50.32
2018-04-24T19:42:05.573Z,51.54
2018-04-24T19:44:33.117Z,53.39
2018-04-24T19:47:00.647Z,51.05
2018-04-24T19:49:33.653Z,52.13
2018-04-24T19:52:01.268Z,53.28
2018-04-24T19:54:28.813Z,53.30
2018-04-24T19:56:56.360Z,52.31
2018-04-24T19:59:23.937Z,51.72
2018-04-24T20:01:51.485Z,51.56
2018-04-24T20:04:19.016Z,51.80
2018-04-24T20:06:46.588Z,52.52
2018-04-24T20:09:14.120Z,54.91
2018-04-24T20:11:41.663Z,55.70
2018-04-24T20:14:09.375Z,56.80
2018-04-24T20:16:36.916Z,56.03
2018-04-24T20:19:04.461Z,55.27
2018-04-24T20:21:32.140Z,55.53
2018-04-24T20:23:59.749Z,56.35
2018-04-24T20:26:27.309Z,58.28
2018-04-24T20:28:54.888Z,59.54
2018-04-24T20:31:22.438Z,63.65
2018-04-24T20:33:50.005Z,64.09
2018-04-24T20:36:17.590Z,66.48
2018-04-24T20:38:45.231Z,67.02
2018-04-24T20:41:12.707Z,67.10
2018-04-24T20:43:40.394Z,68.73
2018-04-24T20:46:08.008Z,69.08
2018-04-24T20:48:35.556Z,69.32
2018-04-24T20:51:03.124Z,69.41
2018-04-24T20:53:30.774Z,69.89
2018-04-24T20:55:58.239Z,70.18
2018-04-24T20:58:25.960Z,70.87
2018-04-24T21:00:53.626Z,71.25
2018-04-24T21:03:21.105Z,70.54
2018-04-24T21:05:48.678Z,70.56
2018-04-24T21:08:16.221Z,70.35
2018-04-24T21:10:43.770Z,71.06
2018-04-24T21:13:11.654Z,71.69
2018-04-24T21:15:39.213Z,72.34
2018-04-24T21:18:06.779Z,72.34
2018-04-24T21:20:34.402Z,72.23
2018-04-24T21:23:01.971Z,71.61
2018-04-24T21:25:29.518Z,71.77
2018-04-24T21:27:57.236Z,71.87
2018-04-24T21:30:24.801Z,71.82
2018-04-24T21:32:52.342Z,71.84
2018-04-24T21:35:19.908Z,71.28
2018-04-24T21:37:47.490Z,70.77
2018-04-24T21:40:15.028Z,70.41
2018-04-24T21:42:42.602Z,69.89
2018-04-24T21:45:10.136Z,70.59
2018-04-24T21:47:37.677Z,68.61
2018-04-24T21:50:05.414Z,66.68
2018-04-24T21:52:32.941Z,66.10
2018-04-24T21:55:00.479Z,66.61
2018-04-24T21:57:28.036Z,67.16
2018-04-24T21:59:55.573Z,65.64
2018-04-24T22:02:23.130Z,64.92
2018-04-24T22:04:50.691Z,64.69
2018-04-24T22:07:18.225Z,63.96
2018-04-24T22:09:45.780Z,65.81
2018-04-24T22:12:13.657Z,65.51
2018-04-24T22:14:41.191Z,65.52
2018-04-24T22:17:08.720Z,65.95
2018-04-24T22:19:36.442Z,66.22
2018-04-24T22:22:04.008Z,66.52
2018-04-24T22:24:31.538Z,66.42
2018-04-24T22:26:59.428Z,66.15
2018-04-24T22:29:26.996Z,65.85
2018-04-24T22:31:54.536Z,65.68
2018-04-24T22:34:22.117Z,65.52
2018-04-24T22:36:49.676Z,65.47
2018-04-24T22:39:17.284Z,65.60
2018-04-24T22:41:45.042Z,66.95
2018-04-24T22:44:12.576Z,66.59
2018-04-24T22:46:40.121Z,67.77
2018-04-24T22:49:07.657Z,68.92
2018-04-24T22:51:35.195Z,70.10
2018-04-24T22:54:02.774Z,70.49
2018-04-24T22:56:30.312Z,70.63
2018-04-24T22:58:57.842Z,70.35
2018-04-24T23:01:25.403Z,69.96
2018-04-24T23:03:52.943Z,69.56
2018-04-24T23:06:20.486Z,69.26
2018-04-24T23:08:48.417Z,69.37
2018-04-24T23:11:28.084Z,69.33
2018-04-24T23:14:07.456Z,68.99
2018-04-24T23:16:46.814Z,68.98
2018-04-24T23:19:26.201Z,68.86
2018-04-24T23:21:53.205Z,68.80
2018-04-24T23:24:20.751Z,69.12
2018-04-24T23:26:48.425Z,69.51
2018-04-24T23:29:15.960Z,70.14
2018-04-24T23:31:43.566Z,70.26
2018-04-24T23:34:11.164Z,72.06
2018-04-24T23:36:38.700Z,71.94
2018-04-24T23:39:06.290Z,71.80
2018-04-24T23:41:34.037Z,71.93
2018-04-24T23:44:01.573Z,71.10
2018-04-24T23:46:29.123Z,72.37
2018-04-24T23:48:56.676Z,72.45
2018-04-24T23:51:24.234Z,72.21
2018-04-24T23:53:51.833Z,72.48
2018-04-24T23:56:19.392Z,72.73
2018-04-24T23:58:46.929Z,72.99
